sensor_id;sensor_type;location;lat;lon;timestamp;P1;durP1;ratioP1;P2;durP2;ratioP2
19006;SDS011;9636;47.382;8.480;2022-11-20T00:00:20;1.40;;;1.30;;
19006;SDS011;9636;47.382;8.480;2022-11-20T00:02:47;1.50;;;1.40;;
19006;SDS011;9636;47.382;8.480;2022-11-20T00:05:14;1.43;;;1.30;;
19006;SDS011;9636;47.382;8.480;2022-11-20T00:07:42;1.60;;;1.50;;
19006;SDS011;9636;47.382;8.480;2022-11-20T00:10:10;1.37;;;1.27;;
19006;SDS011;9636;47.382;8.480;2022-11-20T00:12:37;1.40;;;1.30;;
19006;SDS011;9636;47.382;8.480;2022-11-20T00:15:04;1.60;;;1.50;;
19006;SDS011;9636;47.382;8.480;2022-11-20T00:17:31;1.57;;;1.47;;
19006;SDS011;9636;47.382;8.480;2022-11-20T00:19:58;1.57;;;1.20;;
19006;SDS011;9636;47.382;8.480;2022-11-20T00:22:25;1.83;;;1.30;;
19006;SDS011;9636;47.382;8.480;2022-11-20T00:24:54;1.60;;;1.50;;
19006;SDS011;9636;47.382;8.480;2022-11-20T00:27:22;1.30;;;1.20;;
19006;SDS011;9636;47.382;8.480;2022-11-20T00:29:49;1.53;;;1.43;;
19006;SDS011;9636;47.382;8.480;2022-11-20T00:32:16;1.40;;;1.30;;
19006;SDS011;9636;47.382;8.480;2022-11-20T00:34:44;1.43;;;1.30;;
19006;SDS011;9636;47.382;8.480;2022-11-20T00:37:11;1.67;;;1.40;;
19006;SDS011;9636;47.382;8.480;2022-11-20T00:39:38;1.67;;;1.50;;
19006;SDS011;9636;47.382;8.480;2022-11-20T00:42:06;1.83;;;1.30;;
19006;SDS011;9636;47.382;8.480;2022-11-20T00:44:33;1.70;;;1.30;;
19006;SDS011;9636;47.382;8.480;2022-11-20T00:47:01;1.40;;;1.30;;
19006;SDS011;9636;47.382;8.480;2022-11-20T00:49:28;1.77;;;1.30;;
19006;SDS011;9636;47.382;8.480;2022-11-20T00:51:55;1.40;;;1.30;;
19006;SDS011;9636;47.382;8.480;2022-11-20T00:54:22;1.40;;;1.30;;
19006;SDS011;9636;47.382;8.480;2022-11-20T00:56:49;1.60;;;1.47;;
19006;SDS011;9636;47.382;8.480;2022-11-20T00:59:18;1.97;;;1.37;;
19006;SDS011;9636;47.382;8.480;2022-11-20T01:01:45;1.30;;;1.20;;
19006;SDS011;9636;47.382;8.480;2022-11-20T01:04:12;1.40;;;1.30;;
19006;SDS011;9636;47.382;8.480;2022-11-20T01:06:39;1.57;;;1.20;;
19006;SDS011;9636;47.382;8.480;2022-11-20T01:09:07;1.40;;;1.30;;
19006;SDS011;9636;47.382;8.480;2022-11-20T01:11:35;1.50;;;1.40;;
19006;SDS011;9636;47.382;8.480;2022-11-20T01:14:03;1.70;;;1.50;;
19006;SDS011;9636;47.382;8.480;2022-11-20T01:16:32;2.07;;;1.40;;
19006;SDS011;9636;47.382;8.480;2022-11-20T01:19:00;1.43;;;1.30;;
19006;SDS011;9636;47.382;8.480;2022-11-20T01:21:28;2.17;;;1.30;;
19006;SDS011;9636;47.382;8.480;2022-11-20T01:23:56;1.53;;;1.40;;
19006;SDS011;9636;47.382;8.480;2022-11-20T01:26:24;1.30;;;1.20;;
19006;SDS011;9636;47.382;8.480;2022-11-20T01:28:51;1.50;;;1.40;;
19006;SDS011;9636;47.382;8.480;2022-11-20T01:31:20;1.97;;;1.50;;
19006;SDS011;9636;47.382;8.480;2022-11-20T01:33:49;1.27;;;1.10;;
19006;SDS011;9636;47.382;8.480;2022-11-20T01:36:17;1.40;;;1.30;;
19006;SDS011;9636;47.382;8.480;2022-11-20T01:38:44;1.40;;;1.30;;
19006;SDS011;9636;47.382;8.480;2022-11-20T01:41:12;1.40;;;1.30;;
19006;SDS011;9636;47.382;8.480;2022-11-20T01:44:00;1.50;;;1.40;;
19006;SDS011;9636;47.382;8.480;2022-11-20T01:46:27;1.30;;;1.20;;
19006;SDS011;9636;47.382;8.480;2022-11-20T01:48:56;1.67;;;1.57;;
19006;SDS011;9636;47.382;8.480;2022-11-20T01:51:25;1.50;;;1.40;;
19006;SDS011;9636;47.382;8.480;2022-11-20T01:53:53;2.27;;;1.50;;
19006;SDS011;9636;47.382;8.480;2022-11-20T01:56:21;1.40;;;1.30;;
19006;SDS011;9636;47.382;8.480;2022-11-20T01:58:50;1.30;;;1.17;;
19006;SDS011;9636;47.382;8.480;2022-11-20T02:01:18;1.43;;;1.30;;
19006;SDS011;9636;47.382;8.480;2022-11-20T02:03:47;1.27;;;1.17;;
19006;SDS011;9636;47.382;8.480;2022-11-20T02:06:16;1.30;;;1.20;;
19006;SDS011;9636;47.382;8.480;2022-11-20T02:08:46;1.33;;;1.23;;
19006;SDS011;9636;47.382;8.480;2022-11-20T02:11:13;1.50;;;1.40;;
19006;SDS011;9636;47.382;8.480;2022-11-20T02:13:40;1.20;;;1.10;;
19006;SDS011;9636;47.382;8.480;2022-11-20T02:16:16;1.47;;;1.37;;
19006;SDS011;9636;47.382;8.480;2022-11-20T02:18:45;1.53;;;1.43;;
19006;SDS011;9636;47.382;8.480;2022-11-20T02:21:14;2.00;;;1.50;;
19006;SDS011;9636;47.382;8.480;2022-11-20T02:26:41;1.40;;;1.30;;
19006;SDS011;9636;47.382;8.480;2022-11-20T02:29:09;1.70;;;1.40;;
19006;SDS011;9636;47.382;8.480;2022-11-20T02:31:37;1.30;;;1.20;;
19006;SDS011;9636;47.382;8.480;2022-11-20T02:34:05;1.10;;;1.10;;
19006;SDS011;9636;47.382;8.480;2022-11-20T02:36:32;1.53;;;1.43;;
19006;SDS011;9636;47.382;8.480;2022-11-20T02:39:00;1.60;;;1.33;;
19006;SDS011;9636;47.382;8.480;2022-11-20T02:41:31;1.43;;;1.23;;
19006;SDS011;9636;47.382;8.480;2022-11-20T02:43:59;1.67;;;1.20;;
19006;SDS011;9636;47.382;8.480;2022-11-20T02:46:26;1.50;;;1.20;;
19006;SDS011;9636;47.382;8.480;2022-11-20T02:48:53;1.30;;;1.20;;
19006;SDS011;9636;47.382;8.480;2022-11-20T02:51:21;1.17;;;1.13;;
19006;SDS011;9636;47.382;8.480;2022-11-20T02:53:48;1.20;;;1.10;;
19006;SDS011;9636;47.382;8.480;2022-11-20T02:56:15;1.50;;;1.37;;
19006;SDS011;9636;47.382;8.480;2022-11-20T02:58:42;1.33;;;1.20;;
19006;SDS011;9636;47.382;8.480;2022-11-20T03:01:11;1.93;;;1.37;;
19006;SDS011;9636;47.382;8.480;2022-11-20T03:03:38;1.37;;;1.27;;
19006;SDS011;9636;47.382;8.480;2022-11-20T03:06:05;1.30;;;1.20;;
19006;SDS011;9636;47.382;8.480;2022-11-20T03:08:33;1.30;;;1.20;;
19006;SDS011;9636;47.382;8.480;2022-11-20T03:11:02;1.30;;;1.20;;
19006;SDS011;9636;47.382;8.480;2022-11-20T03:13:29;1.97;;;1.30;;
19006;SDS011;9636;47.382;8.480;2022-11-20T03:15:56;1.43;;;1.33;;
19006;SDS011;9636;47.382;8.480;2022-11-20T03:18:27;1.23;;;1.13;;
19006;SDS011;9636;47.382;8.480;2022-11-20T03:20:56;1.20;;;1.10;;
19006;SDS011;9636;47.382;8.480;2022-11-20T03:23:24;1.13;;;1.13;;
19006;SDS011;9636;47.382;8.480;2022-11-20T03:25:51;1.63;;;1.30;;
19006;SDS011;9636;47.382;8.480;2022-11-20T03:28:19;1.40;;;1.00;;
19006;SDS011;9636;47.382;8.480;2022-11-20T03:30:46;1.33;;;1.23;;
19006;SDS011;9636;47.382;8.480;2022-11-20T03:33:13;1.43;;;1.30;;
19006;SDS011;9636;47.382;8.480;2022-11-20T03:35:42;1.50;;;1.20;;
19006;SDS011;9636;47.382;8.480;2022-11-20T03:38:09;1.20;;;1.10;;
19006;SDS011;9636;47.382;8.480;2022-11-20T03:40:36;1.10;;;1.10;;
19006;SDS011;9636;47.382;8.480;2022-11-20T03:43:03;1.40;;;1.20;;
19006;SDS011;9636;47.382;8.480;2022-11-20T03:45:30;1.10;;;1.10;;
19006;SDS011;9636;47.382;8.480;2022-11-20T03:47:57;1.20;;;1.10;;
19006;SDS011;9636;47.382;8.480;2022-11-20T03:50:24;1.20;;;1.10;;
19006;SDS011;9636;47.382;8.480;2022-11-20T03:52:53;1.27;;;1.17;;
19006;SDS011;9636;47.382;8.480;2022-11-20T03:55:20;1.20;;;1.10;;
19006;SDS011;9636;47.382;8.480;2022-11-20T03:57:47;0.90;;;0.90;;
19006;SDS011;9636;47.382;8.480;2022-11-20T04:00:14;1.27;;;1.17;;
19006;SDS011;9636;47.382;8.480;2022-11-20T04:02:42;1.33;;;1.23;;
19006;SDS011;9636;47.382;8.480;2022-11-20T04:05:09;1.70;;;1.27;;
19006;SDS011;9636;47.382;8.480;2022-11-20T04:07:36;1.40;;;1.30;;
19006;SDS011;9636;47.382;8.480;2022-11-20T04:10:05;1.30;;;1.20;;
19006;SDS011;9636;47.382;8.480;2022-11-20T04:12:32;1.47;;;1.10;;
19006;SDS011;9636;47.382;8.480;2022-11-20T04:14:59;1.20;;;1.10;;
19006;SDS011;9636;47.382;8.480;2022-11-20T04:17:26;1.40;;;1.30;;
19006;SDS011;9636;47.382;8.480;2022-11-20T04:19:54;1.10;;;1.00;;
19006;SDS011;9636;47.382;8.480;2022-11-20T04:22:21;1.40;;;1.30;;
19006;SDS011;9636;47.382;8.480;2022-11-20T04:24:48;1.03;;;1.03;;
19006;SDS011;9636;47.382;8.480;2022-11-20T04:27:16;1.20;;;1.10;;
19006;SDS011;9636;47.382;8.480;2022-11-20T04:29:44;1.43;;;1.00;;
19006;SDS011;9636;47.382;8.480;2022-11-20T04:32:11;1.03;;;1.00;;
19006;SDS011;9636;47.382;8.480;2022-11-20T04:34:38;1.40;;;1.10;;
19006;SDS011;9636;47.382;8.480;2022-11-20T04:37:05;1.30;;;1.20;;
19006;SDS011;9636;47.382;8.480;2022-11-20T04:39:32;2.23;;;1.10;;
19006;SDS011;9636;47.382;8.480;2022-11-20T04:42:00;1.17;;;1.07;;
19006;SDS011;9636;47.382;8.480;2022-11-20T04:44:51;1.43;;;1.20;;
19006;SDS011;9636;47.382;8.480;2022-11-20T04:47:18;1.40;;;1.30;;
19006;SDS011;9636;47.382;8.480;2022-11-20T04:49:45;0.90;;;0.90;;
19006;SDS011;9636;47.382;8.480;2022-11-20T04:52:12;1.27;;;1.17;;
19006;SDS011;9636;47.382;8.480;2022-11-20T04:54:39;1.77;;;1.20;;
19006;SDS011;9636;47.382;8.480;2022-11-20T04:57:07;1.20;;;1.00;;
19006;SDS011;9636;47.382;8.480;2022-11-20T04:59:34;1.47;;;1.10;;
19006;SDS011;9636;47.382;8.480;2022-11-20T05:02:02;1.30;;;1.07;;
19006;SDS011;9636;47.382;8.480;2022-11-20T05:04:29;1.20;;;1.10;;
19006;SDS011;9636;47.382;8.480;2022-11-20T05:06:57;1.00;;;1.00;;
19006;SDS011;9636;47.382;8.480;2022-11-20T05:09:24;1.30;;;1.20;;
19006;SDS011;9636;47.382;8.480;2022-11-20T05:11:51;1.30;;;1.20;;
19006;SDS011;9636;47.382;8.480;2022-11-20T05:14:18;1.20;;;1.10;;
19006;SDS011;9636;47.382;8.480;2022-11-20T05:16:45;1.50;;;1.13;;
19006;SDS011;9636;47.382;8.480;2022-11-20T05:19:14;1.20;;;1.10;;
19006;SDS011;9636;47.382;8.480;2022-11-20T05:21:41;1.20;;;1.10;;
19006;SDS011;9636;47.382;8.480;2022-11-20T05:24:08;1.30;;;1.20;;
19006;SDS011;9636;47.382;8.480;2022-11-20T05:26:35;0.90;;;0.90;;
19006;SDS011;9636;47.382;8.480;2022-11-20T05:29:02;0.90;;;0.90;;
19006;SDS011;9636;47.382;8.480;2022-11-20T05:31:30;0.90;;;0.90;;
19006;SDS011;9636;47.382;8.480;2022-11-20T05:33:57;1.20;;;1.10;;
19006;SDS011;9636;47.382;8.480;2022-11-20T05:36:25;1.37;;;1.20;;
19006;SDS011;9636;47.382;8.480;2022-11-20T05:38:52;1.20;;;1.10;;
19006;SDS011;9636;47.382;8.480;2022-11-20T05:41:20;1.27;;;1.17;;
19006;SDS011;9636;47.382;8.480;2022-11-20T05:43:47;2.13;;;1.20;;
19006;SDS011;9636;47.382;8.480;2022-11-20T05:46:16;1.23;;;1.10;;
19006;SDS011;9636;47.382;8.480;2022-11-20T05:48:43;1.67;;;1.30;;
19006;SDS011;9636;47.382;8.480;2022-11-20T05:51:11;1.43;;;1.03;;
19006;SDS011;9636;47.382;8.480;2022-11-20T05:53:40;1.60;;;1.27;;
19006;SDS011;9636;47.382;8.480;2022-11-20T05:56:09;1.20;;;1.10;;
19006;SDS011;9636;47.382;8.480;2022-11-20T05:58:36;1.27;;;1.17;;
19006;SDS011;9636;47.382;8.480;2022-11-20T06:01:04;1.10;;;1.00;;
19006;SDS011;9636;47.382;8.480;2022-11-20T06:03:31;0.90;;;0.90;;
19006;SDS011;9636;47.382;8.480;2022-11-20T06:05:59;1.30;;;1.20;;
19006;SDS011;9636;47.382;8.480;2022-11-20T06:08:26;1.23;;;1.13;;
19006;SDS011;9636;47.382;8.480;2022-11-20T06:10:54;1.40;;;1.10;;
19006;SDS011;9636;47.382;8.480;2022-11-20T06:13:22;1.10;;;1.10;;
19006;SDS011;9636;47.382;8.480;2022-11-20T06:15:49;1.33;;;1.23;;
19006;SDS011;9636;47.382;8.480;2022-11-20T06:18:16;1.37;;;1.27;;
19006;SDS011;9636;47.382;8.480;2022-11-20T06:20:44;1.00;;;1.00;;
19006;SDS011;9636;47.382;8.480;2022-11-20T06:23:11;1.03;;;1.00;;
19006;SDS011;9636;47.382;8.480;2022-11-20T06:25:38;1.10;;;1.10;;
19006;SDS011;9636;47.382;8.480;2022-11-20T06:28:07;1.10;;;1.00;;
19006;SDS011;9636;47.382;8.480;2022-11-20T06:30:34;1.70;;;1.10;;
19006;SDS011;9636;47.382;8.480;2022-11-20T06:33:02;0.97;;;0.97;;
19006;SDS011;9636;47.382;8.480;2022-11-20T06:35:29;1.73;;;1.00;;
19006;SDS011;9636;47.382;8.480;2022-11-20T06:37:56;1.53;;;1.20;;
19006;SDS011;9636;47.382;8.480;2022-11-20T06:40:23;1.70;;;1.00;;
19006;SDS011;9636;47.382;8.480;2022-11-20T06:42:50;1.40;;;1.30;;
19006;SDS011;9636;47.382;8.480;2022-11-20T06:45:19;1.33;;;1.07;;
19006;SDS011;9636;47.382;8.480;2022-11-20T06:47:46;0.93;;;0.90;;
19006;SDS011;9636;47.382;8.480;2022-11-20T06:50:13;1.00;;;1.00;;
19006;SDS011;9636;47.382;8.480;2022-11-20T06:52:40;1.03;;;1.03;;
19006;SDS011;9636;47.382;8.480;2022-11-20T06:55:07;1.37;;;1.10;;
19006;SDS011;9636;47.382;8.480;2022-11-20T06:57:35;1.03;;;1.00;;
19006;SDS011;9636;47.382;8.480;2022-11-20T07:00:02;1.10;;;1.03;;
19006;SDS011;9636;47.382;8.480;2022-11-20T07:02:30;1.10;;;1.10;;
19006;SDS011;9636;47.382;8.480;2022-11-20T07:04:58;1.33;;;1.10;;
19006;SDS011;9636;47.382;8.480;2022-11-20T07:07:25;1.20;;;1.10;;
19006;SDS011;9636;47.382;8.480;2022-11-20T07:09:52;1.87;;;1.03;;
19006;SDS011;9636;47.382;8.480;2022-11-20T07:12:19;1.23;;;1.13;;
19006;SDS011;9636;47.382;8.480;2022-11-20T07:14:46;1.00;;;0.87;;
19006;SDS011;9636;47.382;8.480;2022-11-20T07:17:13;1.23;;;1.13;;
19006;SDS011;9636;47.382;8.480;2022-11-20T07:19:42;1.20;;;1.10;;
19006;SDS011;9636;47.382;8.480;2022-11-20T07:22:09;1.07;;;0.90;;
19006;SDS011;9636;47.382;8.480;2022-11-20T07:24:36;1.30;;;1.20;;
19006;SDS011;9636;47.382;8.480;2022-11-20T07:27:04;1.00;;;1.00;;
19006;SDS011;9636;47.382;8.480;2022-11-20T07:29:31;1.17;;;1.10;;
19006;SDS011;9636;47.382;8.480;2022-11-20T07:31:58;3.80;;;0.97;;
19006;SDS011;9636;47.382;8.480;2022-11-20T07:34:25;0.80;;;0.80;;
19006;SDS011;9636;47.382;8.480;2022-11-20T07:36:54;0.90;;;0.90;;
19006;SDS011;9636;47.382;8.480;2022-11-20T07:39:21;0.90;;;0.90;;
19006;SDS011;9636;47.382;8.480;2022-11-20T07:41:48;0.87;;;0.87;;
19006;SDS011;9636;47.382;8.480;2022-11-20T07:44:15;1.10;;;1.00;;
19006;SDS011;9636;47.382;8.480;2022-11-20T07:46:42;1.00;;;1.00;;
19006;SDS011;9636;47.382;8.480;2022-11-20T07:49:09;1.30;;;1.20;;
19006;SDS011;9636;47.382;8.480;2022-11-20T07:51:36;0.90;;;0.90;;
19006;SDS011;9636;47.382;8.480;2022-11-20T07:54:05;0.90;;;0.90;;
19006;SDS011;9636;47.382;8.480;2022-11-20T07:56:32;0.87;;;0.87;;
19006;SDS011;9636;47.382;8.480;2022-11-20T07:58:59;0.93;;;0.93;;
19006;SDS011;9636;47.382;8.480;2022-11-20T08:01:26;1.20;;;1.10;;
19006;SDS011;9636;47.382;8.480;2022-11-20T08:03:53;1.17;;;1.07;;
19006;SDS011;9636;47.382;8.480;2022-11-20T08:06:20;1.30;;;1.20;;
19006;SDS011;9636;47.382;8.480;2022-11-20T08:08:49;1.57;;;1.23;;
19006;SDS011;9636;47.382;8.480;2022-11-20T08:11:18;1.97;;;1.10;;
19006;SDS011;9636;47.382;8.480;2022-11-20T08:14:02;1.07;;;0.97;;
19006;SDS011;9636;47.382;8.480;2022-11-20T08:16:47;1.30;;;1.20;;
19006;SDS011;9636;47.382;8.480;2022-11-20T08:19:14;1.47;;;1.30;;
19006;SDS011;9636;47.382;8.480;2022-11-20T08:21:42;1.43;;;1.20;;
19006;SDS011;9636;47.382;8.480;2022-11-20T08:24:09;2.07;;;1.30;;
19006;SDS011;9636;47.382;8.480;2022-11-20T08:26:38;1.10;;;1.10;;
19006;SDS011;9636;47.382;8.480;2022-11-20T08:29:06;1.00;;;1.00;;
19006;SDS011;9636;47.382;8.480;2022-11-20T08:31:33;1.20;;;1.10;;
19006;SDS011;9636;47.382;8.480;2022-11-20T08:34:00;1.30;;;1.10;;
19006;SDS011;9636;47.382;8.480;2022-11-20T08:36:27;1.37;;;1.27;;
19006;SDS011;9636;47.382;8.480;2022-11-20T08:38:55;1.30;;;1.20;;
19006;SDS011;9636;47.382;8.480;2022-11-20T08:41:22;1.33;;;1.20;;
19006;SDS011;9636;47.382;8.480;2022-11-20T08:43:52;2.00;;;1.10;;
19006;SDS011;9636;47.382;8.480;2022-11-20T08:46:20;1.00;;;1.00;;
19006;SDS011;9636;47.382;8.480;2022-11-20T08:48:47;1.00;;;1.00;;
19006;SDS011;9636;47.382;8.480;2022-11-20T08:51:14;1.07;;;1.00;;
19006;SDS011;9636;47.382;8.480;2022-11-20T08:53:41;1.10;;;1.00;;
19006;SDS011;9636;47.382;8.480;2022-11-20T08:56:10;0.97;;;0.87;;
19006;SDS011;9636;47.382;8.480;2022-11-20T08:58:37;2.93;;;1.17;;
19006;SDS011;9636;47.382;8.480;2022-11-20T09:01:05;0.90;;;0.90;;
19006;SDS011;9636;47.382;8.480;2022-11-20T09:03:32;1.00;;;1.00;;
19006;SDS011;9636;47.382;8.480;2022-11-20T09:06:00;1.10;;;1.00;;
19006;SDS011;9636;47.382;8.480;2022-11-20T09:08:28;0.80;;;0.80;;
19006;SDS011;9636;47.382;8.480;2022-11-20T09:10:55;1.10;;;1.00;;
19006;SDS011;9636;47.382;8.480;2022-11-20T09:13:23;0.90;;;0.90;;
19006;SDS011;9636;47.382;8.480;2022-11-20T09:15:54;1.03;;;0.90;;
19006;SDS011;9636;47.382;8.480;2022-11-20T09:18:23;0.90;;;0.90;;
19006;SDS011;9636;47.382;8.480;2022-11-20T09:20:50;1.07;;;1.07;;
19006;SDS011;9636;47.382;8.480;2022-11-20T09:23:17;1.87;;;0.93;;
19006;SDS011;9636;47.382;8.480;2022-11-20T09:25:44;0.90;;;0.90;;
19006;SDS011;9636;47.382;8.480;2022-11-20T09:28:11;1.17;;;0.93;;
19006;SDS011;9636;47.382;8.480;2022-11-20T09:30:39;1.70;;;1.10;;
19006;SDS011;9636;47.382;8.480;2022-11-20T09:33:06;0.97;;;0.97;;
19006;SDS011;9636;47.382;8.480;2022-11-20T09:35:34;1.43;;;1.03;;
19006;SDS011;9636;47.382;8.480;2022-11-20T09:38:05;0.90;;;0.80;;
19006;SDS011;9636;47.382;8.480;2022-11-20T09:40:32;1.50;;;1.20;;
19006;SDS011;9636;47.382;8.480;2022-11-20T09:43:01;1.67;;;1.00;;
19006;SDS011;9636;47.382;8.480;2022-11-20T09:51:05;1.00;;;1.00;;
19006;SDS011;9636;47.382;8.480;2022-11-20T09:53:37;1.00;;;1.00;;
19006;SDS011;9636;47.382;8.480;2022-11-20T09:56:06;1.20;;;1.10;;
19006;SDS011;9636;47.382;8.480;2022-11-20T09:58:38;1.30;;;1.10;;
19006;SDS011;9636;47.382;8.480;2022-11-20T10:01:08;1.67;;;1.20;;
19006;SDS011;9636;47.382;8.480;2022-11-20T10:03:38;1.27;;;1.17;;
19006;SDS011;9636;47.382;8.480;2022-11-20T10:06:09;1.20;;;1.10;;
19006;SDS011;9636;47.382;8.480;2022-11-20T10:08:39;1.80;;;1.00;;
19006;SDS011;9636;47.382;8.480;2022-11-20T10:11:10;3.50;;;1.00;;
19006;SDS011;9636;47.382;8.480;2022-11-20T10:13:43;0.90;;;0.90;;
19006;SDS011;9636;47.382;8.480;2022-11-20T10:16:16;1.40;;;1.20;;
19006;SDS011;9636;47.382;8.480;2022-11-20T10:18:51;1.10;;;1.00;;
19006;SDS011;9636;47.382;8.480;2022-11-20T10:21:25;0.90;;;0.90;;
19006;SDS011;9636;47.382;8.480;2022-11-20T10:24:03;1.10;;;1.00;;
19006;SDS011;9636;47.382;8.480;2022-11-20T10:26:38;1.33;;;1.00;;
19006;SDS011;9636;47.382;8.480;2022-11-20T10:29:09;0.90;;;0.90;;
19006;SDS011;9636;47.382;8.480;2022-11-20T10:31:38;1.00;;;0.90;;
19006;SDS011;9636;47.382;8.480;2022-11-20T10:34:06;1.00;;;1.00;;
19006;SDS011;9636;47.382;8.480;2022-11-20T10:36:42;1.05;;;0.93;;
19006;SDS011;9636;47.382;8.480;2022-11-20T10:39:13;1.02;;;0.90;;
19006;SDS011;9636;47.382;8.480;2022-11-20T10:41:41;1.02;;;1.02;;
19006;SDS011;9636;47.382;8.480;2022-11-20T10:44:10;0.80;;;0.80;;
19006;SDS011;9636;47.382;8.480;2022-11-20T10:46:39;1.00;;;1.00;;
19006;SDS011;9636;47.382;8.480;2022-11-20T10:49:11;1.00;;;0.82;;
19006;SDS011;9636;47.382;8.480;2022-11-20T10:51:43;0.88;;;0.88;;
19006;SDS011;9636;47.382;8.480;2022-11-20T10:54:17;1.00;;;1.00;;
19006;SDS011;9636;47.382;8.480;2022-11-20T10:56:47;1.10;;;1.00;;
19006;SDS011;9636;47.382;8.480;2022-11-20T10:59:21;1.00;;;1.00;;
19006;SDS011;9636;47.382;8.480;2022-11-20T11:01:51;0.90;;;0.90;;
19006;SDS011;9636;47.382;8.480;2022-11-20T11:04:23;1.17;;;0.88;;
19006;SDS011;9636;47.382;8.480;2022-11-20T11:06:56;0.80;;;0.80;;
19006;SDS011;9636;47.382;8.480;2022-11-20T11:09:27;0.85;;;0.85;;
19006;SDS011;9636;47.382;8.480;2022-11-20T11:11:59;0.90;;;0.90;;
19006;SDS011;9636;47.382;8.480;2022-11-20T11:14:26;0.88;;;0.88;;
19006;SDS011;9636;47.382;8.480;2022-11-20T11:16:54;1.25;;;1.02;;
19006;SDS011;9636;47.382;8.480;2022-11-20T11:19:21;0.90;;;0.90;;
19006;SDS011;9636;47.382;8.480;2022-11-20T11:21:49;0.90;;;0.90;;
19006;SDS011;9636;47.382;8.480;2022-11-20T11:24:20;2.55;;;1.00;;
19006;SDS011;9636;47.382;8.480;2022-11-20T11:26:55;1.90;;;0.90;;
19006;SDS011;9636;47.382;8.480;2022-11-20T11:29:23;1.08;;;0.98;;
19006;SDS011;9636;47.382;8.480;2022-11-20T11:32:02;0.80;;;0.80;;
19006;SDS011;9636;47.382;8.480;2022-11-20T11:34:29;1.17;;;1.10;;
19006;SDS011;9636;47.382;8.480;2022-11-20T11:36:57;0.73;;;0.73;;
19006;SDS011;9636;47.382;8.480;2022-11-20T11:39:27;0.80;;;0.80;;
19006;SDS011;9636;47.382;8.480;2022-11-20T11:41:54;0.90;;;0.90;;
19006;SDS011;9636;47.382;8.480;2022-11-20T11:44:24;0.90;;;0.90;;
19006;SDS011;9636;47.382;8.480;2022-11-20T11:47:10;0.70;;;0.70;;
19006;SDS011;9636;47.382;8.480;2022-11-20T11:49:38;1.42;;;1.00;;
19006;SDS011;9636;47.382;8.480;2022-11-20T11:52:08;1.00;;;0.90;;
19006;SDS011;9636;47.382;8.480;2022-11-20T11:54:41;0.88;;;0.88;;
19006;SDS011;9636;47.382;8.480;2022-11-20T11:57:11;1.20;;;0.85;;
19006;SDS011;9636;47.382;8.480;2022-11-20T11:59:41;0.88;;;0.80;;
19006;SDS011;9636;47.382;8.480;2022-11-20T12:02:13;0.90;;;0.90;;
19006;SDS011;9636;47.382;8.480;2022-11-20T12:04:43;1.10;;;1.00;;
19006;SDS011;9636;47.382;8.480;2022-11-20T12:07:12;1.20;;;0.82;;
19006;SDS011;9636;47.382;8.480;2022-11-20T12:09:43;0.70;;;0.70;;
19006;SDS011;9636;47.382;8.480;2022-11-20T12:12:14;0.80;;;0.80;;
19006;SDS011;9636;47.382;8.480;2022-11-20T12:14:45;0.90;;;0.80;;
19006;SDS011;9636;47.382;8.480;2022-11-20T12:17:14;0.70;;;0.70;;
19006;SDS011;9636;47.382;8.480;2022-11-20T12:19:42;1.30;;;1.00;;
19006;SDS011;9636;47.382;8.480;2022-11-20T12:22:12;0.80;;;0.80;;
19006;SDS011;9636;47.382;8.480;2022-11-20T12:24:44;0.80;;;0.80;;
19006;SDS011;9636;47.382;8.480;2022-11-20T12:27:20;1.08;;;0.88;;
19006;SDS011;9636;47.382;8.480;2022-11-20T12:29:56;1.00;;;1.00;;
19006;SDS011;9636;47.382;8.480;2022-11-20T12:32:34;0.70;;;0.70;;
19006;SDS011;9636;47.382;8.480;2022-11-20T12:35:04;0.90;;;0.90;;
19006;SDS011;9636;47.382;8.480;2022-11-20T12:37:38;0.88;;;0.88;;
19006;SDS011;9636;47.382;8.480;2022-11-20T12:40:15;1.23;;;0.80;;
19006;SDS011;9636;47.382;8.480;2022-11-20T12:42:47;1.00;;;0.85;;
19006;SDS011;9636;47.382;8.480;2022-11-20T12:45:50;0.93;;;0.90;;
19006;SDS011;9636;47.382;8.480;2022-11-20T12:48:24;0.70;;;0.70;;
19006;SDS011;9636;47.382;8.480;2022-11-20T12:50:57;2.05;;;0.90;;
19006;SDS011;9636;47.382;8.480;2022-11-20T12:53:30;1.05;;;0.80;;
19006;SDS011;9636;47.382;8.480;2022-11-20T12:56:03;0.80;;;0.80;;
19006;SDS011;9636;47.382;8.480;2022-11-20T12:58:34;1.38;;;1.00;;
19006;SDS011;9636;47.382;8.480;2022-11-20T13:01:04;0.80;;;0.80;;
19006;SDS011;9636;47.382;8.480;2022-11-20T13:03:36;1.00;;;1.00;;
19006;SDS011;9636;47.382;8.480;2022-11-20T13:06:06;0.80;;;0.80;;
19006;SDS011;9636;47.382;8.480;2022-11-20T13:08:37;1.00;;;0.95;;
19006;SDS011;9636;47.382;8.480;2022-11-20T13:11:09;1.70;;;0.90;;
19006;SDS011;9636;47.382;8.480;2022-11-20T13:13:41;0.75;;;0.75;;
19006;SDS011;9636;47.382;8.480;2022-11-20T13:16:10;0.90;;;0.90;;
19006;SDS011;9636;47.382;8.480;2022-11-20T13:18:40;1.67;;;1.20;;
19006;SDS011;9636;47.382;8.480;2022-11-20T13:21:14;0.77;;;0.77;;
19006;SDS011;9636;47.382;8.480;2022-11-20T13:23:41;1.00;;;1.00;;
19006;SDS011;9636;47.382;8.480;2022-11-20T13:26:15;1.83;;;1.02;;
19006;SDS011;9636;47.382;8.480;2022-11-20T13:28:43;1.02;;;1.02;;
19006;SDS011;9636;47.382;8.480;2022-11-20T13:31:23;1.13;;;1.00;;
19006;SDS011;9636;47.382;8.480;2022-11-20T13:33:51;1.27;;;1.10;;
19006;SDS011;9636;47.382;8.480;2022-11-20T13:36:22;1.00;;;0.90;;
19006;SDS011;9636;47.382;8.480;2022-11-20T13:38:50;1.88;;;1.00;;
19006;SDS011;9636;47.382;8.480;2022-11-20T13:41:24;3.05;;;1.10;;
19006;SDS011;9636;47.382;8.480;2022-11-20T13:43:57;1.73;;;1.00;;
19006;SDS011;9636;47.382;8.480;2022-11-20T13:46:34;2.28;;;1.20;;
19006;SDS011;9636;47.382;8.480;2022-11-20T13:49:05;1.45;;;1.17;;
19006;SDS011;9636;47.382;8.480;2022-11-20T13:51:34;2.63;;;0.95;;
19006;SDS011;9636;47.382;8.480;2022-11-20T13:54:24;1.75;;;1.20;;
19006;SDS011;9636;47.382;8.480;2022-11-20T13:56:59;2.42;;;1.45;;
19006;SDS011;9636;47.382;8.480;2022-11-20T13:59:35;2.15;;;1.50;;
19006;SDS011;9636;47.382;8.480;2022-11-20T14:02:08;1.85;;;1.20;;
19006;SDS011;9636;47.382;8.480;2022-11-20T14:04:38;1.77;;;1.42;;
19006;SDS011;9636;47.382;8.480;2022-11-20T14:07:09;2.00;;;1.20;;
19006;SDS011;9636;47.382;8.480;2022-11-20T14:09:37;1.92;;;1.50;;
19006;SDS011;9636;47.382;8.480;2022-11-20T14:12:15;1.40;;;1.20;;
19006;SDS011;9636;47.382;8.480;2022-11-20T14:14:53;1.80;;;1.33;;
19006;SDS011;9636;47.382;8.480;2022-11-20T14:17:28;1.48;;;1.35;;
19006;SDS011;9636;47.382;8.480;2022-11-20T14:20:02;1.50;;;1.20;;
19006;SDS011;9636;47.382;8.480;2022-11-20T14:22:33;1.67;;;1.20;;
19006;SDS011;9636;47.382;8.480;2022-11-20T14:25:04;1.65;;;1.20;;
19006;SDS011;9636;47.382;8.480;2022-11-20T14:27:39;4.25;;;1.48;;
19006;SDS011;9636;47.382;8.480;2022-11-20T14:30:15;2.15;;;1.48;;
19006;SDS011;9636;47.382;8.480;2022-11-20T14:32:46;4.28;;;1.20;;
19006;SDS011;9636;47.382;8.480;2022-11-20T14:35:18;4.03;;;1.45;;
19006;SDS011;9636;47.382;8.480;2022-11-20T14:37:47;2.88;;;1.40;;
19006;SDS011;9636;47.382;8.480;2022-11-20T14:40:25;3.00;;;1.50;;
19006;SDS011;9636;47.382;8.480;2022-11-20T14:42:54;3.20;;;1.42;;
19006;SDS011;9636;47.382;8.480;2022-11-20T14:45:21;1.90;;;1.58;;
19006;SDS011;9636;47.382;8.480;2022-11-20T14:47:49;2.60;;;1.33;;
19006;SDS011;9636;47.382;8.480;2022-11-20T14:50:19;7.95;;;1.80;;
19006;SDS011;9636;47.382;8.480;2022-11-20T14:52:50;3.80;;;1.70;;
19006;SDS011;9636;47.382;8.480;2022-11-20T14:55:31;5.13;;;1.60;;
19006;SDS011;9636;47.382;8.480;2022-11-20T14:58:00;1.50;;;1.38;;
19006;SDS011;9636;47.382;8.480;2022-11-20T15:00:28;2.45;;;1.58;;
19006;SDS011;9636;47.382;8.480;2022-11-20T15:02:55;3.35;;;1.40;;
19006;SDS011;9636;47.382;8.480;2022-11-20T15:05:23;3.78;;;1.50;;
19006;SDS011;9636;47.382;8.480;2022-11-20T15:07:51;4.22;;;1.70;;
19006;SDS011;9636;47.382;8.480;2022-11-20T15:10:20;2.47;;;1.60;;
19006;SDS011;9636;47.382;8.480;2022-11-20T15:12:47;4.13;;;1.27;;
19006;SDS011;9636;47.382;8.480;2022-11-20T15:15:16;3.95;;;1.50;;
19006;SDS011;9636;47.382;8.480;2022-11-20T15:17:44;3.70;;;1.43;;
19006;SDS011;9636;47.382;8.480;2022-11-20T15:20:12;3.78;;;1.75;;